createdAt,value
2023-03-22T00:00:09.145Z,0
2023-03-22T00:01:49.603Z,0
2023-03-22T00:03:30.064Z,0
2023-03-22T00:05:10.406Z,0
2023-03-22T00:06:50.837Z,0
2023-03-22T00:08:31.230Z,0
2023-03-22T00:10:11.736Z,0
2023-03-22T00:11:52.127Z,0
2023-03-22T00:13:33.897Z,0
2023-03-22T00:15:12.856Z,0
2023-03-22T00:16:53.270Z,0
2023-03-22T00:18:33.615Z,0
2023-03-22T00:20:14.070Z,0
2023-03-22T00:21:54.487Z,0
2023-03-22T00:23:34.907Z,0
2023-03-22T00:25:15.433Z,0
2023-03-22T00:26:55.706Z,0
2023-03-22T00:28:36.164Z,0
2023-03-22T00:30:16.608Z,0
2023-03-22T00:31:56.921Z,0
2023-03-22T00:33:37.418Z,0
2023-03-22T00:35:17.844Z,0
2023-03-22T00:36:58.188Z,0
2023-03-22T00:38:43.429Z,0
2023-03-22T00:40:18.966Z,0
2023-03-22T00:41:59.335Z,0
2023-03-22T00:43:39.728Z,0
2023-03-22T00:45:20.069Z,0
2023-03-22T00:47:00.446Z,0
2023-03-22T00:48:40.895Z,0
2023-03-22T00:50:21.291Z,0
2023-03-22T00:52:01.721Z,0
2023-03-22T00:53:43.515Z,0
2023-03-22T00:55:22.485Z,0
2023-03-22T00:57:03.014Z,0
2023-03-22T00:58:43.433Z,0
2023-03-22T01:00:23.839Z,0
2023-03-22T01:02:04.275Z,0
2023-03-22T01:03:44.816Z,0
2023-03-22T01:05:25.133Z,0
2023-03-22T01:07:05.488Z,0
2023-03-22T01:08:45.967Z,0
2023-03-22T01:10:26.278Z,0
2023-03-22T01:12:06.640Z,0
2023-03-22T01:13:47.008Z,0
2023-03-22T01:15:27.382Z,0
2023-03-22T01:17:07.778Z,0
2023-03-22T01:18:48.244Z,0
2023-03-22T01:20:28.706Z,0
2023-03-22T01:22:09.107Z,0
2023-03-22T01:23:49.493Z,0
2023-03-22T01:25:29.936Z,0
2023-03-22T01:27:10.352Z,0
2023-03-22T01:28:50.691Z,0
2023-03-22T01:30:31.183Z,0
2023-03-22T01:32:11.560Z,0
2023-03-22T01:33:51.934Z,0
2023-03-22T01:35:32.435Z,0
2023-03-22T01:37:12.665Z,0
2023-03-22T01:38:52.995Z,0
2023-03-22T01:40:33.351Z,0
2023-03-22T01:42:13.764Z,0
2023-03-22T01:43:54.075Z,0
2023-03-22T01:45:34.472Z,0
2023-03-22T01:47:14.931Z,0
2023-03-22T01:48:55.325Z,0
2023-03-22T01:50:35.708Z,0
2023-03-22T01:52:16.148Z,0
2023-03-22T01:53:56.606Z,0
2023-03-22T01:55:37.068Z,0
2023-03-22T01:57:17.443Z,0
2023-03-22T01:58:57.852Z,0
2023-03-22T02:00:38.560Z,0
2023-03-22T02:02:18.786Z,0
2023-03-22T02:03:59.122Z,0
2023-03-22T02:05:39.533Z,0
2023-03-22T02:07:19.945Z,0
2023-03-22T02:09:00.240Z,0
2023-03-22T02:10:40.812Z,0
2023-03-22T02:12:21.047Z,0
2023-03-22T02:14:01.503Z,0
2023-03-22T02:15:41.888Z,0
2023-03-22T02:17:22.290Z,0
2023-03-22T02:19:02.761Z,0
2023-03-22T02:20:43.104Z,0
2023-03-22T02:22:23.503Z,0
2023-03-22T02:24:03.909Z,0
2023-03-22T02:25:44.309Z,0
2023-03-22T02:27:24.704Z,0
2023-03-22T02:29:05.120Z,0
2023-03-22T02:30:45.561Z,0
2023-03-22T02:32:25.978Z,0
2023-03-22T02:34:06.399Z,0
2023-03-22T02:35:46.833Z,0
2023-03-22T02:37:27.169Z,0
2023-03-22T02:39:07.563Z,0
2023-03-22T02:40:47.951Z,0
2023-03-22T02:42:28.377Z,0
2023-03-22T02:44:08.772Z,0
2023-03-22T02:45:49.210Z,0
2023-03-22T02:47:29.650Z,0
2023-03-22T02:49:10.038Z,0
2023-03-22T02:50:50.486Z,0
2023-03-22T02:52:30.774Z,0
2023-03-22T02:54:11.149Z,0
2023-03-22T02:55:51.654Z,0
2023-03-22T02:57:32.033Z,0
2023-03-22T02:59:12.453Z,0
2023-03-22T03:00:52.824Z,0
2023-03-22T03:02:33.236Z,0
2023-03-22T03:04:13.634Z,0
2023-03-22T03:05:54.056Z,0
2023-03-22T03:07:34.528Z,0
2023-03-22T03:09:14.925Z,0
2023-03-22T03:10:55.229Z,0
2023-03-22T03:12:35.603Z,0
2023-03-22T03:14:16.055Z,0
2023-03-22T03:15:56.441Z,0
2023-03-22T03:17:36.841Z,0
2023-03-22T03:19:17.284Z,0
2023-03-22T03:20:57.699Z,0
2023-03-22T03:22:38.147Z,0
2023-03-22T03:24:18.486Z,0
2023-03-22T03:25:58.865Z,0
2023-03-22T03:27:39.227Z,0
2023-03-22T03:29:19.577Z,0
2023-03-22T03:30:59.869Z,0
2023-03-22T03:32:40.303Z,0
2023-03-22T03:34:20.701Z,0
2023-03-22T03:36:01.135Z,0
2023-03-22T03:37:41.515Z,0
2023-03-22T03:39:21.840Z,0
2023-03-22T03:41:02.290Z,0
2023-03-22T03:42:42.625Z,0
2023-03-22T03:44:23.096Z,0
2023-03-22T03:46:03.786Z,0
2023-03-22T03:47:44.065Z,0
2023-03-22T03:49:24.467Z,0
2023-03-22T03:51:04.899Z,0
2023-03-22T03:52:45.334Z,0
2023-03-22T03:54:25.721Z,0
2023-03-22T03:56:06.112Z,0
2023-03-22T03:57:46.487Z,0
2023-03-22T03:59:26.904Z,0
2023-03-22T04:01:07.409Z,0
2023-03-22T04:02:47.791Z,0
2023-03-22T04:04:28.267Z,0
2023-03-22T04:06:08.544Z,0
2023-03-22T04:07:48.931Z,0
2023-03-22T04:09:29.357Z,0
2023-03-22T04:11:09.802Z,0
2023-03-22T04:12:50.187Z,0
2023-03-22T04:14:30.568Z,0
2023-03-22T04:16:11.036Z,0
2023-03-22T04:17:51.502Z,0
2023-03-22T04:19:31.858Z,0
2023-03-22T04:21:12.305Z,0
2023-03-22T04:22:52.783Z,0
2023-03-22T04:24:33.058Z,0
2023-03-22T04:26:13.500Z,0
2023-03-22T04:27:53.928Z,0
2023-03-22T04:29:34.266Z,0
2023-03-22T04:31:14.645Z,0
2023-03-22T04:32:55.003Z,0
2023-03-22T04:34:35.406Z,0
2023-03-22T04:36:15.804Z,0
2023-03-22T04:37:56.160Z,0
2023-03-22T04:39:36.575Z,0
2023-03-22T04:41:16.906Z,0
2023-03-22T04:42:57.350Z,0
2023-03-22T04:44:37.779Z,1
2023-03-22T04:46:18.192Z,1
2023-03-22T04:47:58.508Z,1
2023-03-22T04:49:38.877Z,2
2023-03-22T04:51:19.290Z,2
2023-03-22T04:52:59.733Z,3
2023-03-22T04:54:40.113Z,4
2023-03-22T04:56:20.611Z,5
2023-03-22T04:58:00.944Z,7
2023-03-22T04:59:41.395Z,9
2023-03-22T05:01:21.923Z,11
2023-03-22T05:03:02.251Z,16
2023-03-22T05:04:42.608Z,23
2023-03-22T05:06:23.006Z,31
2023-03-22T05:08:03.466Z,42
2023-03-22T05:09:43.817Z,58
2023-03-22T05:11:24.187Z,77
2023-03-22T05:13:04.578Z,100
2023-03-22T05:14:45.004Z,129
2023-03-22T05:16:25.380Z,165
2023-03-22T05:18:05.678Z,206
2023-03-22T05:19:46.037Z,263
2023-03-22T05:21:26.534Z,342
2023-03-22T05:23:07.009Z,424
2023-03-22T05:24:47.382Z,514
2023-03-22T05:26:27.697Z,621
2023-03-22T05:28:07.984Z,737
2023-03-22T05:29:48.426Z,816
2023-03-22T05:31:28.993Z,886
2023-03-22T05:33:09.381Z,958
2023-03-22T05:34:49.682Z,999
2023-03-22T05:36:30.050Z,1051
2023-03-22T05:38:10.496Z,1143
2023-03-22T05:39:50.836Z,1229
2023-03-22T05:41:31.188Z,1291
2023-03-22T05:43:11.599Z,1439
2023-03-22T05:44:51.984Z,1615
2023-03-22T05:46:32.480Z,1762
2023-03-22T05:48:12.924Z,1792
2023-03-22T05:49:53.256Z,2015
2023-03-22T05:51:33.671Z,2367
2023-03-22T05:53:14.157Z,2738
2023-03-22T05:54:54.531Z,3145
2023-03-22T05:56:34.922Z,3355
2023-03-22T05:58:15.329Z,3265
2023-03-22T05:59:55.707Z,3351
2023-03-22T06:01:36.241Z,3624
2023-03-22T06:03:17.090Z,3568
2023-03-22T06:04:56.985Z,3277
2023-03-22T06:06:37.396Z,3133
2023-03-22T06:08:17.794Z,3147
2023-03-22T06:09:58.253Z,3308
2023-03-22T06:11:38.693Z,3600
2023-03-22T06:13:19.092Z,4222
2023-03-22T06:14:59.399Z,4688
2023-03-22T06:16:39.955Z,5085
2023-03-22T06:18:20.286Z,5241
2023-03-22T06:20:00.599Z,5111
2023-03-22T06:21:40.994Z,5643
2023-03-22T06:23:21.477Z,6115
2023-03-22T06:25:01.819Z,6334
2023-03-22T06:26:42.186Z,6099
2023-03-22T06:28:22.629Z,5880
2023-03-22T06:30:03.054Z,5789
2023-03-22T06:31:43.414Z,5904
2023-03-22T06:33:23.876Z,6057
2023-03-22T06:35:04.357Z,6415
2023-03-22T06:36:44.801Z,6686
2023-03-22T06:38:25.180Z,6959
2023-03-22T06:40:05.576Z,7254
2023-03-22T06:41:45.906Z,7665
2023-03-22T06:43:26.290Z,7307
2023-03-22T06:45:06.672Z,7477
2023-03-22T06:46:47.080Z,7492
2023-03-22T06:48:27.510Z,7325
2023-03-22T06:50:07.770Z,7254
2023-03-22T06:51:48.103Z,7739
2023-03-22T06:53:28.429Z,7832
2023-03-22T06:55:08.971Z,7974
2023-03-22T06:56:49.236Z,8113
2023-03-22T06:58:29.633Z,8437
2023-03-22T07:00:10.002Z,8713
2023-03-22T07:01:50.440Z,9012
2023-03-22T07:03:30.859Z,9421
2023-03-22T07:05:11.309Z,9717
2023-03-22T07:06:51.689Z,10082
2023-03-22T07:08:32.092Z,11193
2023-03-22T07:10:12.612Z,11983
2023-03-22T07:11:52.908Z,12635
2023-03-22T07:13:33.267Z,13293
2023-03-22T07:15:13.720Z,13897
2023-03-22T07:16:54.192Z,14453
2023-03-22T07:18:34.585Z,14829
2023-03-22T07:20:15.003Z,15276
2023-03-22T07:21:55.383Z,15612
2023-03-22T07:23:35.862Z,16146
2023-03-22T07:25:16.340Z,16707
2023-03-22T07:26:56.792Z,17112
2023-03-22T07:28:37.191Z,17880
2023-03-22T07:30:17.660Z,21544
2023-03-22T07:31:58.102Z,23616
2023-03-22T07:33:38.520Z,22712
2023-03-22T07:35:19.076Z,24920
2023-03-22T07:36:59.298Z,24752
2023-03-22T07:38:39.656Z,24856
2023-03-22T07:40:20.092Z,24704
2023-03-22T07:42:00.431Z,24752
2023-03-22T07:43:52.767Z,24480
2023-03-22T07:45:21.303Z,23528
2023-03-22T07:47:01.624Z,18992
2023-03-22T07:48:41.964Z,18448
2023-03-22T07:50:22.415Z,18936
2023-03-22T07:52:02.900Z,19792
2023-03-22T07:53:43.091Z,19936
2023-03-22T07:55:23.466Z,21016
2023-03-22T07:57:03.879Z,21664
2023-03-22T07:58:44.293Z,23440
2023-03-22T08:00:24.732Z,25296
2023-03-22T08:02:05.185Z,26416
2023-03-22T08:03:45.500Z,27504
2023-03-22T08:05:25.967Z,32416
2023-03-22T08:07:06.466Z,31064
2023-03-22T08:08:46.851Z,32304
2023-03-22T08:10:27.241Z,37760
2023-03-22T08:12:07.718Z,40744
2023-03-22T08:13:48.085Z,39448
2023-03-22T08:15:28.490Z,42184
2023-03-22T08:17:08.919Z,39264
2023-03-22T08:18:49.363Z,34080
2023-03-22T08:20:29.750Z,35288
2023-03-22T08:22:10.073Z,31064
2023-03-22T08:23:50.535Z,35624
2023-03-22T08:25:30.890Z,34336
2023-03-22T08:27:11.336Z,33920
2023-03-22T08:28:51.717Z,31664
2023-03-22T08:30:32.144Z,28808
2023-03-22T08:32:12.651Z,26736
2023-03-22T08:33:52.991Z,25832
2023-03-22T08:35:33.466Z,24008
2023-03-22T08:37:13.869Z,23752
2023-03-22T08:38:54.314Z,24592
2023-03-22T08:40:34.805Z,26296
2023-03-22T08:42:15.164Z,27128
2023-03-22T08:43:55.582Z,26864
2023-03-22T08:45:35.951Z,26728
2023-03-22T08:47:16.353Z,26360
2023-03-22T08:48:56.764Z,25392
2023-03-22T08:50:37.152Z,25832
2023-03-22T08:52:17.550Z,24768
2023-03-22T08:53:57.966Z,23664
2023-03-22T08:55:38.627Z,24072
2023-03-22T08:57:18.792Z,25208
2023-03-22T08:58:59.191Z,27632
2023-03-22T09:00:48.555Z,29832
2023-03-22T09:02:20.064Z,31208
2023-03-22T09:04:00.538Z,32936
2023-03-22T09:05:41.268Z,31888
2023-03-22T09:07:21.321Z,36128
2023-03-22T09:09:01.653Z,33480
2023-03-22T09:10:42.024Z,29920
2023-03-22T09:12:22.489Z,28936
2023-03-22T09:14:02.968Z,31808
2023-03-22T09:15:43.887Z,29128
2023-03-22T09:17:23.737Z,31728
2023-03-22T09:19:04.054Z,30640
2023-03-22T09:20:44.393Z,27744
2023-03-22T09:22:24.884Z,30000
2023-03-22T09:24:05.328Z,32544
2023-03-22T09:25:45.703Z,30784
2023-03-22T09:27:26.105Z,31640
2023-03-22T09:29:06.514Z,32256
2023-03-22T09:30:47.033Z,32704
2023-03-22T09:32:27.369Z,37616
2023-03-22T09:34:07.763Z,38776
2023-03-22T09:35:48.211Z,37256
2023-03-22T09:37:28.577Z,32592
2023-03-22T09:39:09.060Z,32480
2023-03-22T09:40:49.376Z,31976
2023-03-22T09:42:29.832Z,31560
2023-03-22T09:44:10.205Z,30296
2023-03-22T09:45:50.690Z,30408
2023-03-22T09:47:43.922Z,29592
2023-03-22T09:49:11.544Z,26648
2023-03-22T09:50:51.933Z,28472
2023-03-22T09:52:32.444Z,25736
2023-03-22T09:54:12.800Z,27112
2023-03-22T09:55:53.172Z,31504
2023-03-22T09:57:33.506Z,33608
2023-03-22T09:59:13.894Z,37992
2023-03-22T10:00:54.353Z,41376
2023-03-22T10:02:34.796Z,47664
2023-03-22T10:04:15.110Z,59728
2023-03-22T10:05:55.568Z,26696
2023-03-22T10:07:35.982Z,26912
2023-03-22T10:09:16.524Z,27976
2023-03-22T10:10:56.879Z,30400
2023-03-22T10:12:37.269Z,59608
2023-03-22T10:14:17.634Z,46888
2023-03-22T10:15:58.023Z,60216
2023-03-22T10:17:38.432Z,34720
2023-03-22T10:19:18.850Z,65535
2023-03-22T10:20:59.307Z,65535
2023-03-22T10:22:39.654Z,57144
2023-03-22T10:24:20.143Z,46912
2023-03-22T10:26:00.420Z,65535
2023-03-22T10:27:40.826Z,52656
2023-03-22T10:29:21.240Z,35304
2023-03-22T10:31:03.210Z,42680
2023-03-22T10:32:56.417Z,63912
2023-03-22T10:34:22.380Z,43648
2023-03-22T10:36:02.927Z,27624
2023-03-22T10:37:43.215Z,25432
2023-03-22T10:39:23.619Z,41648
2023-03-22T10:41:04.087Z,52552
2023-03-22T10:42:44.425Z,57632
2023-03-22T10:44:24.850Z,65535
2023-03-22T10:46:05.314Z,58312
2023-03-22T10:47:45.704Z,32632
2023-03-22T10:49:26.079Z,28456
2023-03-22T10:51:06.556Z,40920
2023-03-22T10:52:46.858Z,27512
2023-03-22T10:54:27.220Z,38360
2023-03-22T10:56:07.624Z,37136
2023-03-22T10:57:47.996Z,33976
2023-03-22T10:59:28.492Z,46928
2023-03-22T11:01:09.104Z,31464
2023-03-22T11:02:49.459Z,27904
2023-03-22T11:04:29.805Z,26488
2023-03-22T11:06:10.263Z,44248
2023-03-22T11:07:50.737Z,59704
2023-03-22T11:09:31.044Z,56096
2023-03-22T11:11:11.485Z,63376
2023-03-22T11:12:51.905Z,64664
2023-03-22T11:14:32.370Z,28768
2023-03-22T11:16:12.835Z,34088
2023-03-22T11:17:53.276Z,30960
2023-03-22T11:19:33.646Z,31856
2023-03-22T11:21:14.006Z,49272
2023-03-22T11:22:54.470Z,54480
2023-03-22T11:24:34.877Z,60496
2023-03-22T11:26:15.354Z,45760
2023-03-22T11:27:55.759Z,48640
2023-03-22T11:29:36.185Z,51960
2023-03-22T11:31:16.612Z,65535
2023-03-22T11:32:57.002Z,55208
2023-03-22T11:34:37.419Z,52952
2023-03-22T11:36:17.757Z,57120
2023-03-22T11:37:58.113Z,41800
2023-03-22T11:39:38.510Z,33384
2023-03-22T11:41:18.855Z,49504
2023-03-22T11:42:59.297Z,63456
2023-03-22T11:44:39.714Z,65535
2023-03-22T11:46:20.220Z,65535
2023-03-22T11:48:00.717Z,63424
2023-03-22T11:49:41.049Z,65535
2023-03-22T11:51:21.489Z,57416
2023-03-22T11:53:01.905Z,48944
2023-03-22T11:54:42.550Z,51504
2023-03-22T11:56:22.806Z,41320
2023-03-22T11:58:03.305Z,35352
2023-03-22T11:59:43.625Z,40416
2023-03-22T12:01:24.049Z,34184
2023-03-22T12:03:04.534Z,32664
2023-03-22T12:04:44.901Z,32536
2023-03-22T12:06:25.290Z,32632
2023-03-22T12:08:05.634Z,30928
2023-03-22T12:09:46.020Z,34024
2023-03-22T12:11:26.411Z,35432
2023-03-22T12:13:06.859Z,57096
2023-03-22T12:14:47.364Z,61496
2023-03-22T12:16:27.934Z,65535
2023-03-22T12:18:08.545Z,65535
2023-03-22T12:19:48.577Z,62864
2023-03-22T12:21:29.021Z,55448
2023-03-22T12:23:09.348Z,37664
2023-03-22T12:24:49.707Z,27664
2023-03-22T12:26:30.157Z,38224
2023-03-22T12:28:10.557Z,41504
2023-03-22T12:29:50.911Z,32936
2023-03-22T12:31:31.431Z,39648
2023-03-22T12:33:11.733Z,42088
2023-03-22T12:34:55.140Z,32976
2023-03-22T12:36:32.536Z,30680
2023-03-22T12:38:12.920Z,31920
2023-03-22T12:39:53.349Z,35400
2023-03-22T12:41:33.846Z,35576
2023-03-22T12:43:14.125Z,34848
2023-03-22T12:45:04.631Z,31264
2023-03-22T12:46:34.987Z,30624
2023-03-22T12:48:15.428Z,31304
2023-03-22T12:49:55.772Z,31192
2023-03-22T12:51:36.096Z,32936
2023-03-22T12:53:16.502Z,37720
2023-03-22T12:54:56.855Z,36456
2023-03-22T12:56:37.235Z,32848
2023-03-22T12:58:17.615Z,31312
2023-03-22T12:59:58.037Z,29520
2023-03-22T13:01:38.539Z,28008
2023-03-22T13:03:19.127Z,27408
2023-03-22T13:04:59.360Z,28192
2023-03-22T13:06:39.692Z,29016
2023-03-22T13:08:20.101Z,29336
2023-03-22T13:10:00.532Z,28840
2023-03-22T13:11:40.953Z,28888
2023-03-22T13:13:21.364Z,30248
2023-03-22T13:15:01.771Z,30248
2023-03-22T13:16:42.174Z,30200
2023-03-22T13:18:22.485Z,29576
2023-03-22T13:20:02.890Z,29040
2023-03-22T13:21:43.262Z,28512
2023-03-22T13:23:23.738Z,27296
2023-03-22T13:25:04.136Z,26912
2023-03-22T13:26:44.510Z,26888
2023-03-22T13:28:24.940Z,27488
2023-03-22T13:30:05.324Z,29296
2023-03-22T13:31:45.730Z,32360
2023-03-22T13:33:26.089Z,35280
2023-03-22T13:35:06.472Z,37256
2023-03-22T13:36:46.915Z,35200
2023-03-22T13:38:27.443Z,37432
2023-03-22T13:40:07.797Z,36832
2023-03-22T13:41:48.142Z,35560
2023-03-22T13:43:28.523Z,35136
2023-03-22T13:45:08.910Z,29928
2023-03-22T13:46:49.283Z,28384
2023-03-22T13:48:29.973Z,27808
2023-03-22T13:50:10.104Z,27520
2023-03-22T13:51:50.471Z,30936
2023-03-22T13:53:30.896Z,31624
2023-03-22T13:55:11.354Z,30376
2023-03-22T13:56:51.774Z,32184
2023-03-22T13:58:32.188Z,27824
2023-03-22T14:00:14.970Z,24848
2023-03-22T14:01:52.996Z,22784
2023-03-22T14:03:33.498Z,22216
2023-03-22T14:05:13.828Z,21680
2023-03-22T14:06:54.141Z,20024
2023-03-22T14:08:34.549Z,18248
2023-03-22T14:10:14.871Z,16384
2023-03-22T14:11:57.014Z,14217
2023-03-22T14:13:35.653Z,13524
2023-03-22T14:15:16.161Z,13067
2023-03-22T14:16:56.593Z,12798
2023-03-22T14:18:37.037Z,12181
2023-03-22T14:20:17.406Z,12189
2023-03-22T14:52:05.274Z,16130
2023-03-22T14:53:45.629Z,15855
2023-03-22T14:55:26.085Z,15346
2023-03-22T14:57:06.474Z,16471
2023-03-22T14:58:46.887Z,17296
2023-03-22T15:00:27.332Z,16768
2023-03-22T15:02:07.774Z,16151
2023-03-22T15:03:48.147Z,15534
2023-03-22T15:05:28.561Z,14520
2023-03-22T15:07:08.958Z,14370
2023-03-22T15:08:49.295Z,14635
2023-03-22T15:10:29.717Z,14644
2023-03-22T15:12:10.049Z,15327
2023-03-22T15:13:50.441Z,15057
2023-03-22T15:15:30.843Z,13764
2023-03-22T15:17:11.257Z,13373
2023-03-22T15:18:51.581Z,13151
2023-03-22T15:20:31.916Z,11982
2023-03-22T15:22:12.324Z,10768
2023-03-22T15:23:52.766Z,9322
2023-03-22T15:25:33.219Z,8141
2023-03-22T15:27:13.509Z,8114
2023-03-22T15:28:53.800Z,9795
2023-03-22T15:30:34.194Z,11474
2023-03-22T15:32:14.575Z,11419
2023-03-22T15:33:54.977Z,11030
2023-03-22T15:35:35.464Z,10495
2023-03-22T15:37:15.817Z,9410
2023-03-22T15:38:56.233Z,9039
2023-03-22T15:40:36.602Z,8500
2023-03-22T15:42:17.041Z,7376
2023-03-22T15:43:57.451Z,6311
2023-03-22T15:45:37.974Z,6177
2023-03-22T15:47:18.272Z,6107
2023-03-22T15:48:58.666Z,5846
2023-03-22T15:50:39.046Z,5515
2023-03-22T15:52:19.455Z,5037
2023-03-22T15:53:59.951Z,4919
2023-03-22T15:55:40.476Z,4879
2023-03-22T15:57:20.750Z,5039
2023-03-22T15:59:01.188Z,5174
2023-03-22T16:00:41.653Z,5446
2023-03-22T16:02:22.075Z,6226
2023-03-22T16:04:02.597Z,7435
2023-03-22T16:05:43.086Z,8554
2023-03-22T16:07:23.421Z,9228
2023-03-22T16:09:04.398Z,9527
2023-03-22T16:10:44.245Z,9240
2023-03-22T16:12:24.697Z,8813
2023-03-22T16:14:05.072Z,8531
2023-03-22T16:15:45.394Z,8060
2023-03-22T16:17:25.818Z,7871
2023-03-22T16:19:06.151Z,7697
2023-03-22T16:20:46.619Z,7552
2023-03-22T16:22:26.988Z,7282
2023-03-22T16:24:07.410Z,7015
2023-03-22T16:25:47.780Z,6779
2023-03-22T16:27:28.156Z,6562
2023-03-22T16:29:08.574Z,6286
2023-03-22T16:30:48.993Z,6044
2023-03-22T16:32:29.377Z,5794
2023-03-22T16:34:09.765Z,5554
2023-03-22T16:35:50.209Z,5283
2023-03-22T16:37:30.521Z,4945
2023-03-22T16:39:10.909Z,4646
2023-03-22T16:40:51.283Z,4352
2023-03-22T16:42:33.043Z,3970
2023-03-22T16:44:12.033Z,3523
2023-03-22T16:45:52.484Z,3144
2023-03-22T16:47:32.796Z,3072
2023-03-22T16:49:13.160Z,2992
2023-03-22T16:50:53.568Z,2934
2023-03-22T16:52:34.000Z,2940
2023-03-22T16:54:14.430Z,2879
2023-03-22T16:55:54.809Z,2853
2023-03-22T16:57:35.209Z,2597
2023-03-22T16:59:15.701Z,2244
2023-03-22T17:00:56.173Z,2098
2023-03-22T17:02:39.733Z,1889
2023-03-22T17:04:17.096Z,1702
2023-03-22T17:05:57.518Z,1648
2023-03-22T17:07:37.964Z,1590
2023-03-22T17:09:18.324Z,1455
2023-03-22T17:10:58.770Z,1281
2023-03-22T17:12:39.132Z,1064
2023-03-22T17:14:19.545Z,912
2023-03-22T17:16:00.005Z,841
2023-03-22T17:17:40.338Z,738
2023-03-22T17:19:20.756Z,624
2023-03-22T17:21:01.174Z,546
2023-03-22T17:22:41.626Z,459
2023-03-22T17:24:22.138Z,395
2023-03-22T17:26:02.544Z,346
2023-03-22T17:27:42.947Z,309
2023-03-22T17:29:23.427Z,273
2023-03-22T17:31:03.875Z,234
2023-03-22T17:32:59.328Z,198
2023-03-22T17:34:24.574Z,168
2023-03-22T17:36:04.914Z,150
2023-03-22T17:37:45.281Z,136
2023-03-22T17:39:48.307Z,126
2023-03-22T17:41:06.245Z,113
2023-03-22T17:42:46.384Z,93
2023-03-22T17:44:26.794Z,77
2023-03-22T17:46:49.746Z,65
2023-03-22T17:47:49.322Z,55
2023-03-22T17:49:27.845Z,47
2023-03-22T17:51:08.321Z,36
2023-03-22T17:52:49.059Z,29
2023-03-22T17:56:44.110Z,15
2023-03-22T17:58:15.186Z,9
2023-03-22T17:59:30.102Z,9
2023-03-22T18:01:10.560Z,6
2023-03-22T18:02:51.034Z,3
2023-03-22T18:04:31.306Z,3
2023-03-22T18:06:11.653Z,2
2023-03-22T18:08:10.369Z,2
2023-03-22T18:09:32.358Z,1
2023-03-22T18:11:12.688Z,0
2023-03-22T18:12:53.077Z,1
2023-03-22T18:16:13.957Z,0
2023-03-22T18:17:54.174Z,0
2023-03-22T18:19:34.668Z,0
2023-03-22T18:21:15.059Z,0
2023-03-22T18:22:55.497Z,0
2023-03-22T18:24:35.862Z,0
2023-03-22T18:26:25.679Z,0
2023-03-22T18:27:56.671Z,0
2023-03-22T18:29:36.985Z,0
2023-03-22T18:31:17.365Z,0
2023-03-22T18:33:05.882Z,0
2023-03-22T18:34:38.137Z,0
2023-03-22T18:36:18.595Z,0
2023-03-22T18:37:58.949Z,0
2023-03-22T18:40:22.857Z,0
2023-03-22T18:41:34.732Z,0
2023-03-22T18:43:00.153Z,0
2023-03-22T18:44:40.497Z,0
2023-03-22T18:46:21.024Z,0
2023-03-22T18:48:01.266Z,0
2023-03-22T18:49:41.650Z,0
2023-03-22T18:51:22.076Z,0
2023-03-22T18:53:17.836Z,0
2023-03-22T18:54:43.926Z,0
2023-03-22T18:56:23.224Z,0
2023-03-22T18:58:03.628Z,0
2023-03-22T18:59:44.035Z,0
2023-03-22T19:01:24.704Z,0
2023-03-22T19:03:04.782Z,0
2023-03-22T19:04:45.114Z,0
2023-03-22T19:06:25.520Z,0
2023-03-22T19:09:46.372Z,0
2023-03-22T19:11:26.820Z,0
2023-03-22T19:13:07.191Z,0
2023-03-22T19:16:28.071Z,0
2023-03-22T19:18:08.362Z,0
2023-03-22T19:19:48.723Z,0
2023-03-22T19:21:32.228Z,0
2023-03-22T19:23:09.446Z,0
2023-03-22T19:24:49.860Z,0
2023-03-22T19:26:30.550Z,0
2023-03-22T19:28:10.651Z,0
2023-03-22T19:29:51.015Z,0
2023-03-22T19:31:31.437Z,0
2023-03-22T19:33:30.805Z,0
2023-03-22T19:34:53.664Z,0
2023-03-22T19:36:32.564Z,0
2023-03-22T19:38:12.944Z,0
2023-03-22T19:40:38.730Z,0
2023-03-22T19:43:14.124Z,0
2023-03-22T19:44:55.208Z,0
2023-03-22T19:46:34.822Z,0
2023-03-22T19:48:15.282Z,0
2023-03-22T19:49:55.650Z,0
2023-03-22T19:51:35.938Z,0
2023-03-22T19:53:51.754Z,0
2023-03-22T19:54:56.696Z,0
2023-03-22T19:56:37.140Z,0
2023-03-22T19:58:17.509Z,0
2023-03-22T20:00:36.407Z,0
2023-03-22T20:01:38.275Z,0
2023-03-22T20:03:18.722Z,0
2023-03-22T20:05:05.152Z,0
2023-03-22T20:06:39.514Z,0
2023-03-22T20:08:19.847Z,0
2023-03-22T20:10:00.352Z,0
2023-03-22T20:11:43.695Z,0
2023-03-22T20:13:21.134Z,0
2023-03-22T20:15:01.485Z,0
2023-03-22T20:16:41.876Z,0
2023-03-22T20:18:22.185Z,0
2023-03-22T20:20:03.752Z,0
2023-03-22T20:21:42.825Z,0
2023-03-22T20:23:23.239Z,0
2023-03-22T20:25:03.677Z,0
2023-03-22T20:26:44.104Z,0
2023-03-22T20:28:24.417Z,0
2023-03-22T20:30:04.822Z,0
2023-03-22T20:31:45.153Z,0
2023-03-22T20:33:25.585Z,0
2023-03-22T20:35:05.957Z,0
2023-03-22T20:36:46.257Z,0
2023-03-22T20:38:26.687Z,0
2023-03-22T20:40:06.993Z,0
2023-03-22T20:41:47.435Z,0
2023-03-22T20:43:27.814Z,0
2023-03-22T20:45:08.225Z,0
2023-03-22T20:46:48.583Z,0
2023-03-22T20:48:32.037Z,0
2023-03-22T20:50:09.373Z,0
2023-03-22T20:51:49.788Z,0
2023-03-22T20:53:30.216Z,0
2023-03-22T20:55:10.627Z,0
2023-03-22T20:56:51.059Z,0
2023-03-22T20:58:31.466Z,0
2023-03-22T21:00:11.959Z,0
2023-03-22T21:01:52.331Z,0
2023-03-22T21:03:32.808Z,0
2023-03-22T21:05:13.149Z,0
2023-03-22T21:06:53.526Z,0
2023-03-22T21:08:33.889Z,0
2023-03-22T21:10:14.353Z,0
2023-03-22T21:11:54.721Z,0
2023-03-22T21:13:35.167Z,0
2023-03-22T21:15:15.633Z,0
2023-03-22T21:16:56.131Z,0
2023-03-22T21:18:36.478Z,0
2023-03-22T21:20:27.157Z,0
2023-03-22T21:22:00.148Z,0
2023-03-22T21:23:37.745Z,0
2023-03-22T21:25:18.162Z,0
2023-03-22T21:26:58.566Z,0
2023-03-22T21:28:38.983Z,0
2023-03-22T21:30:19.412Z,0
2023-03-22T21:31:59.763Z,0
2023-03-22T21:33:40.162Z,0
2023-03-22T21:35:20.583Z,0
2023-03-22T21:37:00.927Z,0
2023-03-22T21:38:41.380Z,0
2023-03-22T21:40:21.767Z,0
2023-03-22T21:42:02.223Z,0
2023-03-22T21:43:42.614Z,0
2023-03-22T21:45:23.022Z,0
2023-03-22T21:47:03.391Z,0
2023-03-22T21:48:43.757Z,0
2023-03-22T21:50:24.138Z,0
2023-03-22T21:52:04.504Z,0
2023-03-22T21:53:44.899Z,0
2023-03-22T21:55:25.276Z,0
2023-03-22T21:57:05.623Z,0
2023-03-22T21:58:45.968Z,0
2023-03-22T22:00:26.362Z,0
2023-03-22T22:02:06.836Z,0
2023-03-22T22:03:47.253Z,0
2023-03-22T22:05:27.640Z,0
2023-03-22T22:07:08.022Z,0
2023-03-22T22:08:48.463Z,0
2023-03-22T22:10:28.784Z,0
2023-03-22T22:12:09.233Z,0
2023-03-22T22:13:49.585Z,0
2023-03-22T22:15:29.983Z,0
2023-03-22T22:17:10.384Z,0
2023-03-22T22:18:50.852Z,0
2023-03-22T22:20:31.260Z,0
2023-03-22T22:22:11.732Z,0
2023-03-22T22:23:52.163Z,0
2023-03-22T22:25:32.572Z,0
2023-03-22T22:27:12.967Z,0
2023-03-22T22:28:53.301Z,0
2023-03-22T22:30:33.703Z,0
2023-03-22T22:32:14.034Z,0
2023-03-22T22:33:54.427Z,0
2023-03-22T22:35:34.813Z,0
2023-03-22T22:37:15.172Z,0
2023-03-22T22:38:55.573Z,0
2023-03-22T22:40:36.082Z,0
2023-03-22T22:42:16.335Z,0
2023-03-22T22:43:56.745Z,0
2023-03-22T22:45:37.189Z,0
2023-03-22T22:47:17.519Z,0
2023-03-22T22:48:57.893Z,0
2023-03-22T22:50:38.292Z,0
2023-03-22T22:52:18.696Z,0
2023-03-22T22:53:59.088Z,0
2023-03-22T22:55:39.780Z,0
2023-03-22T22:57:20.040Z,0
2023-03-22T22:59:00.469Z,0
2023-03-22T23:00:40.893Z,0
2023-03-22T23:02:21.291Z,0
2023-03-22T23:04:01.717Z,0
2023-03-22T23:05:42.377Z,0
2023-03-22T23:07:22.528Z,0
2023-03-22T23:09:02.924Z,0
2023-03-22T23:10:43.340Z,0
2023-03-22T23:12:23.836Z,0
2023-03-22T23:14:04.184Z,0
2023-03-22T23:15:44.565Z,0
2023-03-22T23:17:24.966Z,0
2023-03-22T23:19:05.445Z,0
2023-03-22T23:20:45.834Z,0
2023-03-22T23:22:26.213Z,0
2023-03-22T23:24:06.626Z,0
2023-03-22T23:25:47.021Z,0
2023-03-22T23:27:27.384Z,0
2023-03-22T23:29:07.721Z,0
2023-03-22T23:30:48.030Z,0
2023-03-22T23:32:28.477Z,0
2023-03-22T23:34:08.818Z,0
2023-03-22T23:35:49.292Z,0
2023-03-22T23:37:29.666Z,0
2023-03-22T23:39:10.148Z,0
2023-03-22T23:40:50.540Z,0
2023-03-22T23:42:30.910Z,0
2023-03-22T23:44:11.348Z,0
2023-03-22T23:45:51.743Z,0